首页
METAR-TAF:

METAR-TAF

机场 :

俄斯特拉发, 捷克共和国

纬度: 49-41N, 经度: 018-07E, 海拔: 256米

当前天气观测

该预报发布于24分钟前的03:30 UTC
风速18节,风向西南
温度 9°C
湿度 61%
气压 1019 hPa
能见度10公里或以上
散云层高于3900英尺
阴天层高于4500英尺

METAR: LKMT 230330Z 23018KT 9999 SCT039 OVC045 09/02 Q1019 NOSIG

时间: 04:54 (03:54 UTC)

预报

该预报发布于4小时和54分钟前的23:00 UTC
预报有效从23日的 00点(UTC)到 24日的 06点(UTC)
风速16节,风向西南
能见度10公里或以上
1500米以下无云,无积雨云
短暂存在
从 23日的 00点(UTC)到 24日的 04点(UTC)
风速18节,风向西转西南,有时为30节阵风
成为
从 23日的 02点(UTC)到 23日的 04点(UTC)
能见度10公里或以上
多云层高于3300英尺
短暂存在
从 23日的 10点(UTC)到 24日的 04点(UTC)
多云层高于2000英尺
小雨
几率 30% :
短暂存在
从 23日的 14点(UTC)到 23日的 19点(UTC)
能見度: 6000
阴天层高于1000英尺
几率 30% :
短暂存在
从 23日的 15点(UTC)到 24日的 01点(UTC)
风速22节,风向西,有时为42节阵风
几率 30% :
短暂存在
从 23日的 19点(UTC)到 23日的 23点(UTC)
能見度: 7000
散云层高于1400英尺, 塔状积云.
多云层高于3000英尺
阵雨

TAF: LKMT 222300Z 2300/2406 22016KT CAVOK TEMPO 2300/2404 24018G30KT BECMG 2302/2304 9999 BKN033 TEMPO 2310/2404 -RA BKN020 PROB30 TEMPO 2314/2319 6000 RA OVC010 PROB30 TEMPO 2315/2401 27022G42KT PROB30 TEMPO 2319/2323 7000 SHRA SCT014TCU BKN030

超过4000个机场的气象观测和天气预报(METAR&TAF报告)。

可查询的气象台以黄色和红色小点在地图上表示。

将鼠标移到小点上方,可查看气象台名称。

然后点击查看天气观测和预报。

如需切换地图:点击带黑十字的绿色按钮放大地图;点击带横线的绿色按钮缩小地图;或者点击绿色箭头查看邻近地区的地图。


METAR-TAF: